Time;durP1;ratioP1;P1;durP2;ratioP2;P2;SDS_P1;SDS_P2;PMS_P1;PMS_P2;Temp;Humidity;BMP_temperature;BMP_pressure;BME280_temperature;BME280_humidity;BME280_pressure;Samples;Min_cycle;Max_cycle;Signal;HPM_P1;HPM_P2
2021/11/04 00:02:13;;;;;;;46.13;23.50;;;8.10;97.80;;;;;;5009847;28;20406;-76
2021/11/04 00:04:39;;;;;;;53.17;26.33;;;8.10;97.80;;;;;;5012954;28;20445;-77
2021/11/04 00:07:10;;;;;;;50.13;26.23;;;8.10;97.90;;;;;;4994444;28;20444;-76
2021/11/04 00:09:36;;;;;;;53.43;26.50;;;8.10;97.90;;;;;;5011485;28;20418;-75
2021/11/04 00:12:02;;;;;;;54.17;26.57;;;8.10;97.90;;;;;;5010400;28;20417;-74
2021/11/04 00:14:27;;;;;;;56.90;26.00;;;8.10;98.00;;;;;;5010005;28;20164;-75
2021/11/04 00:16:53;;;;;;;51.20;26.27;;;8.10;98.00;;;;;;5012311;28;20167;-77
2021/11/04 00:19:19;;;;;;;47.90;27.20;;;8.10;98.00;;;;;;5010517;28;20234;-76
2021/11/04 00:21:44;;;;;;;49.50;26.53;;;8.10;98.00;;;;;;5010658;28;20445;-75
2021/11/04 00:24:10;;;;;;;52.47;27.40;;;8.10;98.00;;;;;;4993746;28;20537;-74
2021/11/04 00:26:36;;;;;;;51.30;25.37;;;8.00;98.00;;;;;;5011297;28;20207;-76
2021/11/04 00:29:02;;;;;;;55.43;28.60;;;8.00;98.00;;;;;;4993157;28;20175;-76
2021/11/04 00:31:27;;;;;;;60.00;27.97;;;8.00;98.00;;;;;;5010383;28;20603;-76
2021/11/04 00:33:55;;;;;;;44.63;26.50;;;8.00;98.00;;;;;;4993221;28;20211;-74
2021/11/04 00:36:21;;;;;;;53.87;27.70;;;8.00;98.10;;;;;;5011111;28;20187;-76
2021/11/04 00:38:48;;;;;;;60.97;27.17;;;8.00;98.00;;;;;;5011127;28;20408;-76
2021/11/04 00:41:14;;;;;;;60.93;27.90;;;7.90;98.00;;;;;;4993650;28;20422;-75
2021/11/04 00:43:40;;;;;;;54.03;26.43;;;7.90;98.00;;;;;;4994643;28;20466;-76
2021/11/04 00:46:06;;;;;;;53.63;27.80;;;7.90;98.00;;;;;;5010515;28;20449;-76
2021/11/04 00:48:32;;;;;;;53.93;26.33;;;7.90;98.00;;;;;;5014338;28;20898;-75
2021/11/04 00:50:58;;;;;;;59.57;27.80;;;7.90;98.00;;;;;;5014529;28;20648;-75
2021/11/04 00:53:23;;;;;;;53.27;26.47;;;7.90;98.10;;;;;;5013694;28;20267;-75
2021/11/04 00:55:49;;;;;;;59.73;27.40;;;7.80;98.10;;;;;;4996933;28;20506;-74
2021/11/04 00:58:16;;;;;;;57.70;27.80;;;7.80;98.20;;;;;;5014567;28;20258;-75
2021/11/04 01:00:42;;;;;;;51.73;27.47;;;7.80;98.20;;;;;;4999608;28;20888;-76
2021/11/04 01:03:08;;;;;;;58.07;26.87;;;7.80;98.20;;;;;;5016854;28;20601;-75
2021/11/04 01:05:34;;;;;;;50.67;26.80;;;7.80;98.20;;;;;;5015288;28;20441;-76
2021/11/04 01:08:00;;;;;;;49.57;25.10;;;7.80;98.20;;;;;;5014839;28;20464;-75
2021/11/04 01:10:27;;;;;;;53.90;25.07;;;7.80;98.20;;;;;;5015601;28;20203;-75
2021/11/04 01:12:52;;;;;;;51.10;26.80;;;7.80;98.20;;;;;;5013205;28;20179;-74
2021/11/04 01:15:20;;;;;;;56.03;26.97;;;7.80;98.30;;;;;;5014590;28;20422;-75
2021/11/04 01:17:46;;;;;;;51.60;26.37;;;7.80;98.30;;;;;;5014230;28;20183;-76
2021/11/04 01:20:12;;;;;;;55.33;27.13;;;7.80;98.30;;;;;;4997163;28;20532;-76
2021/11/04 01:22:37;;;;;;;55.13;28.17;;;7.80;98.40;;;;;;5013774;28;20417;-76
2021/11/04 01:25:04;;;;;;;56.87;28.10;;;7.80;98.40;;;;;;5019534;28;20958;-76
2021/11/04 01:27:29;;;;;;;57.17;27.10;;;7.80;98.30;;;;;;5014981;28;20165;-76
2021/11/04 01:29:56;;;;;;;54.60;26.90;;;7.80;98.30;;;;;;5013048;28;20823;-75
2021/11/04 01:32:22;;;;;;;63.30;26.63;;;7.80;98.30;;;;;;5013267;28;20163;-75
2021/11/04 01:34:48;;;;;;;54.17;27.50;;;7.80;98.30;;;;;;5013657;28;20426;-75
2021/11/04 01:37:14;;;;;;;64.70;29.07;;;7.80;98.30;;;;;;4996206;28;20421;-75
2021/11/04 01:39:40;;;;;;;64.53;27.43;;;7.80;98.20;;;;;;5012561;28;20417;-75
2021/11/04 01:42:06;;;;;;;58.27;27.67;;;7.80;98.30;;;;;;5014059;28;20274;-76
2021/11/04 01:44:31;;;;;;;62.33;26.77;;;7.80;98.20;;;;;;5014258;28;20183;-75
2021/11/04 01:46:57;;;;;;;59.43;28.80;;;7.80;98.20;;;;;;4995272;28;20425;-74
2021/11/04 01:49:23;;;;;;;60.90;28.13;;;7.80;98.50;;;;;;5013733;28;20171;-74
2021/11/04 01:51:48;;;;;;;60.90;27.17;;;7.80;98.10;;;;;;4995740;28;20160;-74
2021/11/04 01:54:14;;;;;;;59.43;27.70;;;7.80;98.20;;;;;;4995946;28;20633;-73
2021/11/04 01:56:40;;;;;;;65.37;30.17;;;7.80;98.10;;;;;;5013596;28;20167;-75
2021/11/04 01:59:06;;;;;;;65.43;28.63;;;7.80;98.20;;;;;;5013121;28;20163;-74
2021/11/04 02:01:33;;;;;;;68.43;28.63;;;7.80;98.20;;;;;;5013481;28;20414;-76
2021/11/04 02:04:04;;;;;;;56.77;27.13;;;7.80;98.20;;;;;;5013504;28;20414;-75
2021/11/04 02:06:58;;;;;;;61.33;25.60;;;7.80;98.20;;;;;;5013396;28;20468;-76
2021/11/04 02:09:29;;;;;;;65.90;25.03;;;7.80;98.30;;;;;;4995782;28;20509;-75
2021/11/04 02:12:01;;;;;;;60.13;25.67;;;7.70;98.20;;;;;;5013221;28;20445;-76
2021/11/04 02:14:36;;;;;;;54.10;25.27;;;7.70;98.20;;;;;;5013200;28;20406;-75
2021/11/04 02:17:04;;;;;;;46.60;22.60;;;7.70;98.20;;;;;;5013495;28;20467;-75
2021/11/04 02:19:48;;;;;;;54.03;24.10;;;7.70;98.20;;;;;;4995532;28;20959;-75
2021/11/04 02:22:40;;;;;;;58.80;25.50;;;7.70;98.10;;;;;;5012683;28;20406;-75
2021/11/04 02:25:29;;;;;;;60.03;24.83;;;7.70;98.10;;;;;;4975545;28;20556;-75
2021/11/04 02:27:59;;;;;;;57.93;27.17;;;7.70;98.20;;;;;;5013264;28;20413;-75
2021/11/04 02:30:27;;;;;;;56.60;25.17;;;7.70;98.20;;;;;;5014082;28;20399;-75
2021/11/04 02:32:54;;;;;;;58.20;26.00;;;7.70;98.20;;;;;;4996382;28;20488;-75
2021/11/04 02:35:21;;;;;;;53.50;25.20;;;7.70;98.20;;;;;;4996652;28;20422;-75
2021/11/04 02:37:50;;;;;;;49.13;22.83;;;7.70;98.20;;;;;;5013693;28;20437;-75
2021/11/04 02:40:16;;;;;;;54.53;23.73;;;7.70;98.20;;;;;;5013043;28;20493;-75
2021/11/04 02:42:43;;;;;;;46.70;22.50;;;7.70;98.20;;;;;;5014020;28;20416;-76
2021/11/04 02:45:11;;;;;;;50.00;22.97;;;7.70;98.10;;;;;;5013424;28;20445;-75
2021/11/04 02:47:37;;;;;;;54.93;24.60;;;7.70;98.10;;;;;;4994452;28;20502;-75
2021/11/04 02:50:06;;;;;;;49.40;22.83;;;7.70;98.10;;;;;;5013269;28;20429;-77
2021/11/04 02:52:32;;;;;;;52.50;24.07;;;7.70;98.10;;;;;;5013224;28;20410;-75
2021/11/04 02:54:59;;;;;;;56.30;25.13;;;7.60;98.00;;;;;;5014175;28;20429;-76
2021/11/04 02:57:26;;;;;;;59.53;25.00;;;7.60;97.90;;;;;;5013615;28;20410;-76
2021/11/04 02:59:52;;;;;;;53.03;24.10;;;7.60;97.90;;;;;;5013832;28;20475;-76
2021/11/04 03:02:18;;;;;;;50.00;25.60;;;7.60;97.90;;;;;;5014066;28;20852;-76
2021/11/04 03:04:44;;;;;;;60.17;24.57;;;7.60;97.90;;;;;;5011027;28;20527;-76
2021/11/04 03:07:10;;;;;;;60.40;27.03;;;7.60;98.30;;;;;;5013971;28;20434;-76
2021/11/04 03:09:36;;;;;;;59.33;25.03;;;7.50;97.80;;;;;;5012242;28;20430;-75
2021/11/04 03:12:03;;;;;;;57.17;23.40;;;7.50;97.80;;;;;;5012417;28;20946;-75
2021/11/04 03:14:29;;;;;;;73.80;23.73;;;7.50;97.90;;;;;;5013190;28;20179;-75
2021/11/04 03:16:57;;;;;;;52.53;22.20;;;7.50;97.80;;;;;;4996557;28;20476;-75
2021/11/04 03:19:24;;;;;;;50.23;23.20;;;7.40;97.80;;;;;;5012813;28;20812;-75
2021/11/04 03:21:52;;;;;;;59.97;23.43;;;7.40;97.80;;;;;;5012675;28;20507;-77
2021/11/04 03:24:19;;;;;;;53.77;22.80;;;7.40;97.80;;;;;;4994858;28;20483;-75
2021/11/04 03:27:04;;;;;;;59.83;23.90;;;7.40;97.80;;;;;;5012586;28;20519;-75
2021/11/04 03:29:32;;;;;;;43.27;22.60;;;7.40;97.80;;;;;;5011762;28;20452;-75
2021/11/04 03:32:05;;;;;;;45.43;22.63;;;7.40;97.80;;;;;;5011302;28;20510;-75
2021/11/04 03:34:34;;;;;;;54.23;22.27;;;7.40;97.70;;;;;;5009982;28;20430;-75
2021/11/04 03:37:03;;;;;;;56.27;23.20;;;7.40;97.70;;;;;;5011981;28;20406;-75
2021/11/04 03:39:29;;;;;;;47.13;22.43;;;7.30;97.70;;;;;;5011227;28;20464;-75
2021/11/04 03:41:57;;;;;;;44.57;21.60;;;7.30;97.70;;;;;;4977292;28;20414;-74
2021/11/04 03:44:26;;;;;;;45.87;22.17;;;7.30;97.70;;;;;;5010047;28;20421;-74
2021/11/04 03:46:54;;;;;;;50.77;21.87;;;7.30;97.60;;;;;;4992897;28;20492;-75
2021/11/04 03:49:22;;;;;;;48.50;21.47;;;7.30;97.70;;;;;;5008452;28;20918;-75
2021/11/04 03:51:53;;;;;;;49.67;22.87;;;7.30;97.60;;;;;;5010585;28;20416;-75
2021/11/04 03:54:22;;;;;;;58.97;26.07;;;7.30;97.60;;;;;;5011080;28;20495;-75
2021/11/04 03:56:48;;;;;;;57.00;23.77;;;7.30;97.60;;;;;;5011276;28;20812;-76
2021/11/04 03:59:14;;;;;;;55.43;23.53;;;7.30;97.70;;;;;;4995615;28;20864;-76
2021/11/04 04:01:39;;;;;;;58.83;22.33;;;7.20;97.60;;;;;;5011385;28;20471;-75
2021/11/04 04:04:08;;;;;;;50.63;23.07;;;7.30;97.80;;;;;;5011247;28;20202;-76
2021/11/04 04:06:35;;;;;;;61.03;23.40;;;7.30;97.80;;;;;;5010885;28;20206;-75
2021/11/04 04:09:04;;;;;;;52.73;21.40;;;7.30;98.20;;;;;;5011138;28;20457;-75
2021/11/04 04:11:30;;;;;;;53.40;23.93;;;7.30;98.10;;;;;;4992588;28;20428;-74
2021/11/04 04:13:56;;;;;;;62.93;24.50;;;7.30;97.70;;;;;;5011672;28;20410;-76
2021/11/04 04:16:22;;;;;;;52.60;24.97;;;7.30;97.70;;;;;;5011069;28;20199;-75
2021/11/04 04:18:49;;;;;;;58.97;24.67;;;7.30;97.70;;;;;;5013102;28;20175;-74
2021/11/04 04:21:15;;;;;;;52.97;21.83;;;7.30;97.60;;;;;;5009576;28;20475;-75
2021/11/04 04:23:41;;;;;;;57.10;23.27;;;7.30;97.70;;;;;;5010642;28;20469;-75
2021/11/04 04:26:08;;;;;;;63.57;22.00;;;7.30;97.70;;;;;;5010819;28;20468;-76
2021/11/04 04:28:35;;;;;;;49.67;21.40;;;7.30;97.60;;;;;;5011505;28;20410;-76
2021/11/04 04:31:00;;;;;;;58.00;21.67;;;7.30;97.50;;;;;;5010541;28;20472;-75
2021/11/04 04:33:29;;;;;;;54.17;22.17;;;7.30;97.50;;;;;;4993297;28;20709;-75
2021/11/04 04:35:55;;;;;;;58.23;22.43;;;7.20;97.50;;;;;;5010385;28;20231;-75
2021/11/04 04:38:22;;;;;;;54.50;21.60;;;7.20;97.30;;;;;;5010645;28;20501;-75
2021/11/04 04:40:47;;;;;;;47.77;20.67;;;7.20;97.30;;;;;;5010073;28;20437;-75
2021/11/04 04:43:13;;;;;;;57.00;20.67;;;7.20;97.30;;;;;;5010660;28;20418;-76
2021/11/04 04:45:39;;;;;;;50.93;20.23;;;7.20;97.30;;;;;;5010210;28;20592;-74
2021/11/04 04:48:05;;;;;;;56.00;22.63;;;7.20;97.30;;;;;;5011644;28;20170;-75
2021/11/04 04:50:31;;;;;;;60.73;23.50;;;7.20;97.30;;;;;;5010566;28;20406;-74
2021/11/04 04:52:57;;;;;;;52.43;21.27;;;7.20;97.20;;;;;;5010800;28;20233;-74
2021/11/04 04:55:23;;;;;;;57.00;24.27;;;7.20;97.20;;;;;;5010951;28;20515;-74
2021/11/04 04:57:48;;;;;;;61.70;22.87;;;7.20;97.20;;;;;;5010773;28;20281;-75
2021/11/04 05:00:14;;;;;;;56.30;23.10;;;7.20;97.10;;;;;;5010763;28;20214;-75
2021/11/04 05:02:43;;;;;;;49.93;21.97;;;7.20;97.10;;;;;;5010068;28;20171;-74
2021/11/04 05:05:11;;;;;;;51.03;22.00;;;7.20;97.10;;;;;;5011140;28;20453;-76
2021/11/04 05:07:37;;;;;;;50.57;20.77;;;7.20;97.10;;;;;;5011168;28;20486;-75
2021/11/04 05:10:05;;;;;;;49.43;21.30;;;7.20;97.00;;;;;;5013006;28;20402;-75
2021/11/04 05:12:31;;;;;;;54.07;20.97;;;7.20;97.00;;;;;;5015023;28;20434;-75
2021/11/04 05:15:00;;;;;;;56.00;19.30;;;7.20;96.90;;;;;;5019257;28;20477;-75
2021/11/04 05:17:26;;;;;;;57.90;23.20;;;7.20;96.90;;;;;;5018563;28;20418;-75
2021/11/04 05:19:52;;;;;;;59.50;21.20;;;7.20;96.90;;;;;;5017836;28;20418;-75
2021/11/04 05:22:18;;;;;;;52.53;22.30;;;7.20;96.70;;;;;;5011168;28;20186;-76
2021/11/04 05:24:43;;;;;;;53.40;21.80;;;7.10;96.90;;;;;;5011061;28;20473;-76
2021/11/04 05:27:10;;;;;;;58.37;21.47;;;7.10;97.20;;;;;;5010682;28;20461;-75
2021/11/04 05:29:36;;;;;;;60.87;23.17;;;7.10;97.00;;;;;;5010824;28;20165;-75
2021/11/04 05:32:07;;;;;;;60.73;21.77;;;7.20;97.00;;;;;;4991916;28;20483;-75
2021/11/04 05:34:41;;;;;;;48.30;21.70;;;7.20;97.10;;;;;;5014222;28;20446;-76
2021/11/04 05:37:10;;;;;;;55.17;20.20;;;7.20;97.10;;;;;;5015017;28;20410;-75
2021/11/04 05:39:39;;;;;;;52.23;24.30;;;7.20;97.10;;;;;;4996362;28;20421;-76
2021/11/04 05:42:07;;;;;;;47.80;23.57;;;7.20;97.10;;;;;;5013371;28;20909;-76
2021/11/04 05:44:34;;;;;;;59.47;23.10;;;7.20;97.00;;;;;;5014615;28;20406;-77
2021/11/04 05:46:59;;;;;;;50.10;19.87;;;7.20;97.00;;;;;;5018872;28;20410;-76
2021/11/04 05:49:25;;;;;;;55.43;22.67;;;7.20;96.90;;;;;;5028041;28;20963;-76
2021/11/04 05:51:50;;;;;;;45.83;20.50;;;7.20;97.00;;;;;;5032844;28;20197;-74
2021/11/04 05:54:23;;;;;;;52.93;22.10;;;7.20;96.90;;;;;;5036441;28;20253;-83
2021/11/04 05:57:04;;;;;;;52.00;22.93;;;7.20;96.90;;;;;;5055178;28;20189;-83
2021/11/04 05:59:33;;;;;;;61.07;21.97;;;7.10;96.80;;;;;;5042825;28;20447;-84
2021/11/04 06:01:59;;;;;;;44.33;19.73;;;7.10;96.90;;;;;;5046680;28;20413;-83
2021/11/04 06:04:25;;;;;;;41.20;19.47;;;7.10;96.80;;;;;;5050887;28;20440;-83
2021/11/04 06:06:51;;;;;;;41.40;20.90;;;7.10;96.70;;;;;;5033503;28;20202;-82
2021/11/04 06:09:17;;;;;;;45.90;19.80;;;7.10;96.80;;;;;;5027524;28;20455;-82
2021/11/04 06:11:43;;;;;;;52.63;20.77;;;7.10;96.70;;;;;;5045302;28;20829;-80
2021/11/04 06:14:09;;;;;;;51.77;21.57;;;7.10;96.70;;;;;;5047923;28;20417;-80
2021/11/04 06:16:37;;;;;;;46.80;19.40;;;7.10;96.60;;;;;;5032346;28;20437;-79
2021/11/04 06:19:03;;;;;;;52.27;18.70;;;7.10;96.60;;;;;;5047794;28;20429;-80
2021/11/04 06:21:29;;;;;;;56.63;24.30;;;7.10;96.60;;;;;;5049327;28;20189;-80
2021/11/04 06:23:55;;;;;;;55.97;22.83;;;7.10;96.60;;;;;;5048385;28;20844;-80
2021/11/04 06:26:21;;;;;;;54.87;22.23;;;7.10;96.60;;;;;;5038992;28;20194;-80
2021/11/04 06:28:47;;;;;;;57.30;24.33;;;7.10;96.70;;;;;;5048082;28;20177;-80
2021/11/04 06:31:13;;;;;;;61.10;23.00;;;7.00;96.60;;;;;;5031342;28;20586;-80
2021/11/04 06:33:39;;;;;;;63.50;22.53;;;7.00;96.60;;;;;;5031755;28;20424;-80
2021/11/04 06:36:04;;;;;;;63.43;23.67;;;7.00;96.70;;;;;;5048944;28;20469;-79
2021/11/04 06:38:32;;;;;;;63.83;24.77;;;7.00;96.70;;;;;;5024690;28;20174;-79
2021/11/04 06:40:57;;;;;;;63.37;22.50;;;7.00;96.70;;;;;;5043142;28;20179;-79
2021/11/04 06:43:23;;;;;;;74.50;26.60;;;7.00;96.70;;;;;;5031676;28;20430;-80
2021/11/04 06:45:54;;;;;;;62.50;24.27;;;7.00;96.80;;;;;;5047231;28;20206;-79
2021/11/04 06:48:31;;;;;;;63.90;24.73;;;7.00;96.80;;;;;;5046989;28;20494;-79
2021/11/04 06:50:59;;;;;;;71.10;26.17;;;7.00;96.80;;;;;;5019458;28;20421;-81
2021/11/04 06:53:27;;;;;;;63.63;23.53;;;7.00;96.80;;;;;;5041422;28;20436;-81
2021/11/04 06:55:54;;;;;;;76.40;25.80;;;7.00;96.80;;;;;;5048044;28;20429;-80
2021/11/04 06:58:30;;;;;;;63.27;24.70;;;7.00;96.90;;;;;;5044486;28;20426;-81
2021/11/04 07:00:59;;;;;;;63.37;24.10;;;7.00;96.90;;;;;;5048114;28;20751;-82
2021/11/04 07:03:30;;;;;;;59.33;22.90;;;7.10;97.00;;;;;;5046490;28;20405;-79
2021/11/04 07:06:08;;;;;;;63.47;29.60;;;7.10;96.90;;;;;;5047092;28;20480;-81
2021/11/04 07:08:41;;;;;;;69.20;26.47;;;7.10;96.90;;;;;;5033229;28;20412;-80
2021/11/04 07:11:09;;;;;;;64.47;26.77;;;7.10;96.90;;;;;;5045804;28;20429;-79
2021/11/04 07:13:39;;;;;;;53.80;22.80;;;7.10;96.90;;;;;;5048289;28;20397;-80
2021/11/04 07:16:05;;;;;;;50.67;21.47;;;7.10;96.80;;;;;;5050379;28;20453;-81
2021/11/04 07:18:34;;;;;;;51.57;22.40;;;7.10;96.60;;;;;;5029814;28;20409;-80
2021/11/04 07:21:10;;;;;;;53.70;23.47;;;7.10;96.60;;;;;;5046147;23;20482;-72
2021/11/04 07:23:38;;;;;;;51.03;21.47;;;7.10;96.60;;;;;;5051288;28;20547;-72
2021/11/04 07:26:06;;;;;;;63.30;23.90;;;7.10;96.60;;;;;;5033361;28;20447;-73
2021/11/04 07:28:35;;;;;;;52.27;22.23;;;7.10;96.60;;;;;;5051072;28;20412;-73
2021/11/04 07:31:01;;;;;;;49.03;20.47;;;7.10;96.50;;;;;;5045483;28;20495;-74
2021/11/04 07:33:32;;;;;;;49.13;22.57;;;7.10;96.40;;;;;;5029885;28;20800;-73
2021/11/04 07:35:59;;;;;;;46.80;20.03;;;7.10;96.40;;;;;;5029991;28;20445;-74
2021/11/04 07:38:26;;;;;;;57.57;21.50;;;7.10;96.40;;;;;;5029109;28;20420;-72
2021/11/04 07:40:53;;;;;;;41.30;19.80;;;7.10;96.40;;;;;;5030682;28;20425;-75
2021/11/04 07:43:19;;;;;;;45.93;19.73;;;7.10;96.40;;;;;;5031206;28;20463;-74
2021/11/04 07:45:45;;;;;;;55.73;22.63;;;7.10;96.10;;;;;;5031311;28;20448;-74
2021/11/04 07:48:10;;;;;;;41.43;20.03;;;7.10;96.00;;;;;;5029670;28;20491;-73
2021/11/04 07:50:36;;;;;;;46.00;18.83;;;7.10;96.00;;;;;;5031931;28;20572;-72
2021/11/04 07:53:03;;;;;;;53.03;23.47;;;7.10;95.90;;;;;;5031400;28;20163;-74
2021/11/04 07:55:28;;;;;;;51.03;21.03;;;7.10;96.00;;;;;;5029746;28;20521;-74
2021/11/04 07:57:54;;;;;;;57.00;23.80;;;7.20;96.10;;;;;;5031161;28;20418;-72
2021/11/04 08:00:23;;;;;;;46.20;23.83;;;7.20;96.00;;;;;;5013549;28;20413;-72
2021/11/04 08:02:48;;;;;;;51.80;22.20;;;7.20;96.00;;;;;;5030151;28;20197;-73
2021/11/04 08:05:17;;;;;;;48.37;23.37;;;7.20;95.90;;;;;;5032066;28;20445;-72
2021/11/04 08:07:43;;;;;;;55.77;22.40;;;7.30;96.10;;;;;;5013439;28;20177;-72
2021/11/04 08:10:11;;;;;;;54.13;24.00;;;7.30;96.10;;;;;;5030897;28;20436;-74
2021/11/04 08:12:37;;;;;;;53.23;23.83;;;7.30;96.00;;;;;;5029956;28;20544;-72
2021/11/04 08:15:04;;;;;;;60.80;25.90;;;7.40;96.00;;;;;;5030084;28;20405;-73
2021/11/04 08:17:30;;;;;;;58.00;22.90;;;7.40;96.00;;;;;;5012909;28;20436;-71
2021/11/04 08:19:56;;;;;;;60.60;25.90;;;7.40;96.00;;;;;;5030365;28;20405;-73
2021/11/04 08:22:22;;;;;;;56.43;23.10;;;7.40;95.90;;;;;;4993793;28;1052204;-71
2021/11/04 08:24:48;;;;;;;59.03;26.27;;;7.50;96.00;;;;;;5031269;28;20556;-72
2021/11/04 08:27:15;;;;;;;68.17;25.57;;;7.50;96.00;;;;;;5031208;28;20209;-72
2021/11/04 08:29:41;;;;;;;64.43;30.90;;;7.50;96.00;;;;;;5029304;28;20283;-72
2021/11/04 08:32:11;;;;;;;60.17;25.77;;;7.50;95.90;;;;;;5030923;28;20496;-73
2021/11/04 08:34:41;;;;;;;61.17;25.17;;;7.50;96.00;;;;;;5031167;28;20393;-75
2021/11/04 08:37:08;;;;;;;53.60;24.70;;;7.50;95.70;;;;;;5031706;28;20401;-72
2021/11/04 08:39:34;;;;;;;58.77;25.93;;;7.40;95.80;;;;;;5030110;28;20412;-74
2021/11/04 08:42:03;;;;;;;57.83;23.07;;;7.40;96.00;;;;;;5030462;28;20421;-73
2021/11/04 08:44:29;;;;;;;54.30;23.73;;;7.40;96.10;;;;;;5030919;28;20405;-73
2021/11/04 08:46:55;;;;;;;52.90;25.03;;;7.40;96.10;;;;;;5030679;28;20494;-73
2021/11/04 08:49:21;;;;;;;61.30;23.17;;;7.40;96.10;;;;;;5030949;28;20417;-75
2021/11/04 08:51:47;;;;;;;55.97;25.10;;;7.40;96.20;;;;;;5013491;28;20623;-74
2021/11/04 08:54:13;;;;;;;57.63;24.10;;;7.50;96.10;;;;;;5031158;28;20496;-72
2021/11/04 08:56:40;;;;;;;49.60;22.33;;;7.50;96.10;;;;;;5013161;28;20794;-73
2021/11/04 08:59:05;;;;;;;52.10;23.37;;;7.50;96.00;;;;;;5013737;28;20417;-71
2021/11/04 09:01:33;;;;;;;58.23;24.40;;;7.60;95.90;;;;;;5013116;28;20510;-73
2021/11/04 09:03:59;;;;;;;54.80;23.00;;;7.60;96.00;;;;;;5031376;28;20289;-73
2021/11/04 09:06:25;;;;;;;41.70;23.00;;;7.70;95.90;;;;;;5031428;28;20499;-73
2021/11/04 09:08:51;;;;;;;50.97;22.90;;;7.80;95.70;;;;;;5016320;28;20166;-74
2021/11/04 09:11:17;;;;;;;44.50;21.60;;;7.90;95.30;;;;;;5034599;28;20187;-74
2021/11/04 09:13:42;;;;;;;51.67;25.97;;;8.00;94.90;;;;;;5035690;28;20171;-76
2021/11/04 09:16:08;;;;;;;47.57;24.60;;;8.00;94.80;;;;;;5034410;28;20576;-74
2021/11/04 09:18:34;;;;;;;52.90;24.90;;;8.10;94.60;;;;;;5034459;28;20304;-74
2021/11/04 09:20:59;;;;;;;43.67;25.50;;;8.10;94.40;;;;;;5033752;28;20733;-74
2021/11/04 09:23:25;;;;;;;63.27;27.50;;;8.10;94.20;;;;;;5034580;28;20236;-73
2021/11/04 09:25:51;;;;;;;51.30;24.97;;;8.10;94.30;;;;;;5017404;28;20272;-73
2021/11/04 09:28:17;;;;;;;48.23;26.00;;;8.10;94.30;;;;;;5016462;28;20178;-72
2021/11/04 09:30:42;;;;;;;50.63;24.47;;;8.20;94.30;;;;;;5016108;28;20166;-72
2021/11/04 09:33:09;;;;;;;53.50;24.17;;;8.20;94.10;;;;;;5016948;28;20405;-74
2021/11/04 09:35:36;;;;;;;50.30;25.33;;;8.20;94.00;;;;;;5033864;28;20616;-73
2021/11/04 09:38:04;;;;;;;46.93;24.80;;;8.20;94.00;;;;;;5015916;28;20408;-73
2021/11/04 09:40:30;;;;;;;57.70;25.53;;;8.30;93.90;;;;;;5034496;28;20527;-75
2021/11/04 09:42:55;;;;;;;49.87;22.83;;;8.30;94.00;;;;;;5034063;28;20965;-74
2021/11/04 09:45:23;;;;;;;48.27;23.80;;;8.30;94.00;;;;;;5035487;28;20241;-73
2021/11/04 09:47:49;;;;;;;39.07;19.13;;;8.30;93.80;;;;;;5020349;28;20167;-73
2021/11/04 09:50:17;;;;;;;41.27;22.57;;;8.30;94.00;;;;;;5038240;28;20911;-73
2021/11/04 09:52:45;;;;;;;58.73;30.30;;;8.40;94.20;;;;;;5018851;28;20197;-75
2021/11/04 09:55:17;;;;;;;37.40;19.70;;;8.40;93.90;;;;;;5016143;28;20421;-73
2021/11/04 09:57:44;;;;;;;39.67;20.33;;;8.50;93.80;;;;;;5034137;28;20504;-73
2021/11/04 10:00:11;;;;;;;39.30;18.77;;;8.60;93.50;;;;;;5033652;28;20481;-73
2021/11/04 10:02:39;;;;;;;45.70;20.80;;;8.60;93.20;;;;;;5033708;28;20436;-74
2021/11/04 10:05:07;;;;;;;41.27;19.20;;;8.60;93.10;;;;;;5033941;28;20514;-72
2021/11/04 10:07:47;;;;;;;43.73;20.00;;;8.70;93.10;;;;;;5018664;28;20421;-74
2021/11/04 10:10:15;;;;;;;38.90;20.03;;;8.70;93.10;;;;;;5035095;28;20409;-74
2021/11/04 10:13:03;;;;;;;37.93;19.53;;;8.80;92.90;;;;;;5020586;28;20436;-73
2021/11/04 10:15:30;;;;;;;44.90;21.67;;;8.90;93.10;;;;;;5034063;28;20451;-73
2021/11/04 10:18:17;;;;;;;43.00;23.37;;;9.00;92.80;;;;;;5016289;28;20413;-73
2021/11/04 10:21:02;;;;;;;39.87;20.13;;;9.10;92.40;;;;;;5015692;28;20472;-74
2021/11/04 10:23:44;;;;;;;37.97;20.10;;;9.10;92.50;;;;;;5000265;28;20524;-74
2021/11/04 10:26:12;;;;;;;44.83;21.67;;;9.20;92.60;;;;;;5034110;28;20560;-75
2021/11/04 10:28:40;;;;;;;42.30;20.40;;;9.30;92.40;;;;;;5034120;28;20408;-74
2021/11/04 10:31:10;;;;;;;43.00;19.50;;;9.40;92.40;;;;;;5033261;28;20432;-74
2021/11/04 10:33:38;;;;;;;37.33;20.30;;;9.40;92.10;;;;;;5034122;28;20875;-75
2021/11/04 10:36:14;;;;;;;45.57;23.23;;;9.60;92.20;;;;;;5033485;28;20424;-74
2021/11/04 10:38:45;;;;;;;47.73;21.60;;;9.70;91.60;;;;;;5035917;28;20440;-73
2021/11/04 10:41:22;;;;;;;47.97;20.77;;;9.80;92.60;;;;;;5033529;28;20925;-74
2021/11/04 10:43:54;;;;;;;41.00;20.70;;;9.90;91.30;;;;;;5034069;28;20435;-73
2021/11/04 10:46:20;;;;;;;39.50;20.30;;;9.90;90.80;;;;;;5034025;28;20526;-73
2021/11/04 10:48:47;;;;;;;42.20;20.90;;;9.90;92.00;;;;;;5015735;28;20409;-74
2021/11/04 10:51:15;;;;;;;36.70;18.37;;;10.00;91.50;;;;;;5032513;28;20544;-75
2021/11/04 10:53:41;;;;;;;39.93;19.63;;;10.00;91.20;;;;;;5015553;28;20398;-73
2021/11/04 10:56:19;;;;;;;41.13;19.53;;;10.10;90.90;;;;;;5033334;28;20841;-74
2021/11/04 10:58:55;;;;;;;44.60;22.07;;;10.00;91.20;;;;;;5033360;28;20441;-71
2021/11/04 11:01:41;;;;;;;39.23;21.40;;;9.90;92.30;;;;;;5033002;28;20518;-76
2021/11/04 11:04:10;;;;;;;47.97;21.93;;;9.90;92.70;;;;;;5016615;28;20420;-75
2021/11/04 11:06:38;;;;;;;45.33;22.63;;;9.80;92.80;;;;;;5017216;28;20482;-74
2021/11/04 11:09:10;;;;;;;45.50;21.57;;;9.80;93.20;;;;;;5034921;28;20445;-74
2021/11/04 11:11:41;;;;;;;41.07;21.37;;;9.90;93.60;;;;;;5035853;28;20421;-72
2021/11/04 11:14:07;;;;;;;41.50;20.30;;;10.00;92.80;;;;;;5036331;28;20397;-74
2021/11/04 11:16:36;;;;;;;36.50;19.20;;;10.10;92.50;;;;;;5035233;28;20412;-73
2021/11/04 11:19:02;;;;;;;38.10;18.53;;;10.30;92.80;;;;;;5032132;28;20564;-74
2021/11/04 11:21:38;;;;;;;34.50;17.70;;;10.40;91.70;;;;;;5032333;28;20515;-75
2021/11/04 11:24:04;;;;;;;39.60;19.10;;;10.40;91.60;;;;;;5016366;28;20416;-73
2021/11/04 11:26:30;;;;;;;37.13;20.30;;;10.30;91.80;;;;;;5015672;28;20491;-73
2021/11/04 11:28:58;;;;;;;49.37;18.60;;;10.20;91.60;;;;;;5033425;28;20536;-74
2021/11/04 11:31:25;;;;;;;35.63;18.07;;;10.10;92.00;;;;;;5031786;28;20425;-74
2021/11/04 11:34:07;;;;;;;35.47;17.40;;;10.00;92.00;;;;;;5032829;28;20471;-73
2021/11/04 11:36:33;;;;;;;40.53;19.07;;;9.90;92.90;;;;;;5015281;28;20401;-73
2021/11/04 11:38:59;;;;;;;38.80;19.50;;;9.80;93.50;;;;;;5014185;28;20941;-73
2021/11/04 11:41:58;;;;;;;149.10;75.63;;;9.80;93.80;;;;;;5014254;28;20228;-73
2021/11/04 11:44:40;;;;;;;43.23;22.00;;;9.80;94.70;;;;;;5032378;28;20416;-74
2021/11/04 11:47:20;;;;;;;38.77;18.80;;;9.90;94.90;;;;;;5032230;28;20551;-72
2021/11/04 11:49:48;;;;;;;45.97;20.10;;;9.90;94.30;;;;;;5032684;28;20500;-73
2021/11/04 11:52:51;;;;;;;46.43;21.93;;;9.80;94.70;;;;;;5030429;28;20456;-74
2021/11/04 11:55:47;;;;;;;36.00;18.87;;;9.90;94.90;;;;;;5032757;28;20924;-73
2021/11/04 11:58:13;;;;;;;35.77;19.03;;;9.90;94.40;;;;;;5032169;28;21022;-73
2021/11/04 12:01:09;;;;;;;29.80;15.70;;;10.00;93.90;;;;;;5014642;28;20512;-74
2021/11/04 12:03:41;;;;;;;38.63;20.43;;;10.30;94.20;;;;;;4994044;28;20436;-72
2021/11/04 12:06:12;;;;;;;30.90;18.80;;;10.40;94.00;;;;;;5032640;28;20448;-72
2021/11/04 12:08:39;;;;;;;35.17;18.80;;;10.60;93.40;;;;;;5033168;28;20420;-72
2021/11/04 12:11:07;;;;;;;26.70;17.50;;;10.80;93.10;;;;;;5032237;28;20943;-73
2021/11/04 12:13:41;;;;;;;32.13;19.80;;;10.80;92.60;;;;;;5033534;28;20772;-76
2021/11/04 12:16:22;;;;;;;42.80;24.47;;;10.80;92.50;;;;;;5015584;28;20451;-73
2021/11/04 12:19:00;;;;;;;33.70;18.07;;;10.90;92.50;;;;;;5015301;28;20417;-73
2021/11/04 12:21:27;;;;;;;34.10;19.60;;;11.00;92.50;;;;;;5039601;28;20441;-74
2021/11/04 12:23:55;;;;;;;34.50;21.37;;;11.00;92.50;;;;;;5033101;28;20421;-76
2021/11/04 12:26:36;;;;;;;33.57;19.03;;;11.00;92.40;;;;;;5014413;28;20640;-72
2021/11/04 12:29:07;;;;;;;34.87;20.90;;;11.00;92.40;;;;;;5031549;28;20409;-72
2021/11/04 12:31:38;;;;;;;116.70;63.67;;;11.00;92.20;;;;;;5029369;28;20428;-72
2021/11/04 12:34:05;;;;;;;41.70;22.60;;;11.00;92.60;;;;;;5033353;28;20416;-72
2021/11/04 12:36:35;;;;;;;70.13;35.83;;;11.00;92.50;;;;;;5038031;28;20419;-73
2021/11/04 12:39:03;;;;;;;38.43;23.03;;;10.90;92.70;;;;;;5032606;28;20425;-75
2021/11/04 12:41:29;;;;;;;41.60;22.70;;;10.80;92.30;;;;;;5029578;28;20865;-74
2021/11/04 12:44:05;;;;;;;36.53;20.43;;;10.80;92.60;;;;;;5030989;28;20420;-74